TimeAKST,TemperatureF,Dew PointF,Humidity,Sea Level PressureIn,VisibilityMPH,Wind Direction,Wind SpeedMPH,Gust SpeedMPH,PrecipitationIn,Events,Conditions,WindDirDegrees,DateUTC
12:01 AM,21.2,17.6,86,28.94,1.0,North,6.9,-,0.00,Snow,Light Snow,360,2011-11-12 09:01:00
12:53 AM,21.9,18.0,85,28.93,4.0,NNE,6.9,-,0.03,Snow,Light Snow,20,2011-11-12 09:53:00
1:53 AM,21.9,18.0,85,28.92,5.0,North,4.6,-,0.02,Snow,Light Snow,360,2011-11-12 10:53:00
3:53 AM,21.9,19.0,89,28.90,4.0,North,4.6,-,0.00,Snow,Light Snow,10,2011-11-12 12:53:00
4:53 AM,21.9,19.0,89,28.87,4.0,ENE,5.8,-,0.00,Snow,Light Snow,70,2011-11-12 13:53:00
5:53 AM,23.0,19.0,85,28.86,10.0,Calm,Calm,-,0.00,,Overcast,0,2011-11-12 14:53:00
6:53 AM,23.0,19.0,85,28.86,10.0,NNE,5.8,-,N/A,,Overcast,20,2011-11-12 15:53:00
7:23 AM,24.8,19.4,80,28.84,2.0,North,3.5,-,0.00,Snow,Light Snow,10,2011-11-12 16:23:00
7:24 AM,24.8,19.4,80,28.84,2.0,Calm,Calm,-,0.00,Snow,Light Snow,0,2011-11-12 16:24:00
7:51 AM,24.8,19.4,80,28.84,4.0,East,3.5,-,0.00,Snow,Light Snow,90,2011-11-12 16:51:00
7:53 AM,23.0,19.9,88,28.85,4.0,East,3.5,-,0.00,Snow,Light Snow,90,2011-11-12 16:53:00
8:13 AM,23.0,19.4,86,28.83,1.0,East,3.5,-,0.00,Snow,Light Snow,90,2011-11-12 17:13:00
8:53 AM,24.1,21.0,88,28.82,1.0,NE,3.5,-,0.00,Snow,Light Snow,40,2011-11-12 17:53:00
8:55 AM,24.8,21.2,86,28.82,3.0,Calm,Calm,-,0.00,Snow,Light Snow,0,2011-11-12 17:55:00
8:57 AM,24.8,21.2,86,28.82,2.0,NE,3.5,-,0.00,Snow,Light Snow,40,2011-11-12 17:57:00
9:10 AM,24.8,21.2,86,28.83,2.0,WNW,6.9,-,0.00,Snow,Light Snow,300,2011-11-12 18:10:00
9:53 AM,27.0,24.1,89,28.86,1.0,NW,4.6,-,0.00,Snow,Light Snow,320,2011-11-12 18:53:00
10:03 AM,26.6,24.8,93,28.85,0.8,North,3.5,-,0.00,Snow,Light Snow,350,2011-11-12 19:03:00
10:22 AM,26.6,23.0,86,28.86,1.8,Calm,Calm,-,0.01,Snow,Light Snow,0,2011-11-12 19:22:00
10:28 AM,26.6,23.0,86,28.86,3.0,SE,3.5,-,0.01,Snow,Light Snow,130,2011-11-12 19:28:00
10:32 AM,26.6,23.0,86,28.86,2.5,Calm,Calm,-,0.01,,Overcast,0,2011-11-12 19:32:00
10:53 AM,26.1,24.1,92,28.88,2.0,Calm,Calm,-,0.01,,Overcast,0,2011-11-12 19:53:00
11:41 AM,28.4,24.8,86,28.88,10.0,Calm,Calm,-,N/A,,Overcast,0,2011-11-12 20:41:00
11:53 AM,28.0,25.0,88,28.89,10.0,SE,3.5,-,N/A,,Overcast,140,2011-11-12 20:53:00
12:53 PM,30.0,25.0,82,28.89,10.0,South,3.5,-,N/A,,Overcast,170,2011-11-12 21:53:00
12:55 PM,30.2,24.8,80,28.88,10.0,Calm,Calm,-,N/A,,Overcast,0,2011-11-12 21:55:00
1:51 PM,28.4,24.8,86,28.89,2.0,NW,4.6,-,0.00,Snow,Light Snow,320,2011-11-12 22:51:00
1:53 PM,28.9,25.0,85,28.90,2.0,NW,3.5,-,0.00,Snow,Light Snow,320,2011-11-12 22:53:00
2:01 PM,28.4,24.8,86,28.89,2.0,NW,4.6,-,0.00,Snow,Light Snow,310,2011-11-12 23:01:00
2:09 PM,28.4,24.8,86,28.89,2.0,NW,3.5,-,0.00,Snow,Light Snow,320,2011-11-12 23:09:00
2:53 PM,28.0,25.0,88,28.91,2.0,Calm,Calm,-,0.00,Snow,Light Snow,0,2011-11-12 23:53:00
3:53 PM,28.0,25.0,88,28.92,1.2,Calm,Calm,-,0.01,Snow,Light Snow,0,2011-11-13 00:53:00
4:53 PM,28.0,25.0,88,28.95,1.2,North,3.5,-,0.01,Snow,Light Snow,350,2011-11-13 01:53:00
4:55 PM,28.4,24.8,86,28.94,3.0,North,3.5,-,0.00,Snow,Light Snow,350,2011-11-13 01:55:00
5:02 PM,28.4,24.8,86,28.94,4.0,NNW,3.5,-,0.00,Snow,Light Snow,340,2011-11-13 02:02:00
5:35 PM,26.6,24.8,93,28.95,10.0,Calm,Calm,-,0.00,,Overcast,0,2011-11-13 02:35:00
5:53 PM,28.0,24.1,85,28.98,10.0,NNW,3.5,-,0.00,,Overcast,340,2011-11-13 02:53:00
6:46 PM,26.6,23.0,86,29.00,2.0,North,3.5,-,0.00,Snow,Light Snow,10,2011-11-13 03:46:00
6:53 PM,27.0,23.0,85,29.01,3.0,Calm,Calm,-,0.00,Snow,Light Snow,0,2011-11-13 03:53:00
7:53 PM,26.1,23.0,88,29.05,6.0,Calm,Calm,-,0.00,,Overcast,0,2011-11-13 04:53:00
8:53 PM,27.0,24.1,89,29.08,5.0,Calm,Calm,-,0.00,Snow,Light Snow,0,2011-11-13 05:53:00
9:53 PM,28.0,25.0,88,29.09,6.0,Calm,Calm,-,0.00,Snow,Light Snow,0,2011-11-13 06:53:00
10:53 PM,30.9,28.0,89,29.12,5.0,South,6.9,-,0.00,Snow,Light Snow,170,2011-11-13 07:53:00
11:53 PM,30.9,28.9,92,29.14,4.0,South,5.8,-,0.00,Snow,Light Snow,170,2011-11-13 08:53:00